Time;durP1;ratioP1;P1;durP2;ratioP2;P2;SDS_P1;SDS_P2;PMS_P1;PMS_P2;Temp;Humidity;BMP_temperature;BMP_pressure;BME280_temperature;BME280_humidity;BME280_pressure;Samples;Min_cycle;Max_cycle;Signal;HPM_P1;HPM_P2
2022/02/11 00:09:09;;;;;;;119.85;53.55;;;;;;;1.49;69.44;96178.44;5024423;28;20577;-74
2022/02/11 00:11:39;;;;;;;122.75;53.92;;;;;;;1.52;69.62;96180.00;5007246;28;20498;-73
2022/02/11 00:14:05;;;;;;;152.20;65.10;;;;;;;1.51;69.08;96170.41;5023209;28;20025;-73
2022/02/11 00:16:31;;;;;;;157.65;66.65;;;;;;;1.55;69.16;96171.88;5023179;28;20033;-74
2022/02/11 00:18:59;;;;;;;156.68;68.03;;;;;;;1.55;69.21;96162.16;5023347;28;20063;-74
2022/02/11 00:21:25;;;;;;;171.68;72.55;;;;;;;1.53;70.35;96171.16;5024043;28;20140;-72
2022/02/11 00:23:50;;;;;;;182.77;77.35;;;;;;;1.44;69.38;96167.31;5028689;28;20038;-72
2022/02/11 00:26:15;;;;;;;153.70;67.20;;;;;;;1.48;69.66;96166.16;5026529;28;20029;-73
2022/02/11 00:31:48;;;;;;;154.82;67.53;;;;;;;1.59;70.27;96155.72;5026607;28;20033;-73
2022/02/11 00:34:13;;;;;;;157.60;69.10;;;;;;;1.57;69.11;96162.03;5026734;28;20056;-74
2022/02/11 00:36:45;;;;;;;128.43;57.58;;;;;;;1.54;67.50;96155.19;5026786;28;20485;-74
2022/02/11 01:03:20;;;;;;;93.78;42.45;;;;;;;1.05;67.17;96144.25;5026763;28;20090;-73
2022/02/11 01:05:46;;;;;;;84.05;41.13;;;;;;;0.96;67.56;96145.72;5026045;28;20036;-73
2022/02/11 01:08:12;;;;;;;79.13;39.78;;;;;;;1.02;66.43;96139.19;5026504;28;20064;-73
2022/02/11 01:10:37;;;;;;;68.13;34.15;;;;;;;0.92;66.35;96132.81;5027278;28;20045;-73
2022/02/11 01:13:03;;;;;;;68.68;35.67;;;;;;;0.86;67.22;96137.53;5025872;28;20590;-73
2022/02/11 01:15:31;;;;;;;72.82;36.88;;;;;;;0.82;67.28;96128.09;5026440;28;20034;-73
2022/02/11 01:18:00;;;;;;;75.57;37.63;;;;;;;0.72;68.10;96121.72;5026743;28;20040;-73
2022/02/11 01:25:55;;;;;;;81.30;40.50;;;;;;;0.72;69.74;96145.50;5027177;28;20036;-73
2022/02/11 01:31:38;;;;;;;68.30;33.78;;;;;;;0.71;68.64;96144.66;5025598;28;20107;-74
2022/02/11 01:34:06;;;;;;;67.93;33.63;;;;;;;0.59;68.19;96129.59;5024874;28;20483;-73
2022/02/11 01:36:52;;;;;;;57.55;32.03;;;;;;;0.58;68.01;96136.66;5025822;28;20030;-76
2022/02/11 01:55:22;;;;;;;;;;;;;;;0.31;69.43;96124.25;5027370;28;20507;-73
2022/02/11 02:26:47;;;;;;;80.10;38.72;;;;;;;0.30;69.10;96111.16;5024594;28;20474;-74
2022/02/11 02:37:40;;;;;;;83.28;40.15;;;;;;;0.24;68.11;96134.34;5025475;28;20033;-73
2022/02/11 02:59:25;;;;;;;135.10;62.97;;;;;;;0.34;70.11;96121.44;5024266;28;20033;-73
2022/02/11 03:01:59;;;;;;;140.55;67.72;;;;;;;0.41;70.66;96126.31;5023932;28;20104;-74
2022/02/11 03:14:42;;;;;;;138.50;63.63;;;;;;;0.39;70.47;96130.88;5025173;28;20072;-73
2022/02/11 04:56:59;;;;;;;76.00;33.53;;;;;;;-1.09;71.45;96133.38;5026725;28;20471;-73
2022/02/11 04:59:46;;;;;;;86.82;35.42;;;;;;;-1.09;71.75;96135.16;5027179;28;20511;-73
2022/02/11 05:02:11;;;;;;;75.60;34.05;;;;;;;-1.15;71.63;96145.13;5027456;28;20464;-73
2022/02/11 05:04:37;;;;;;;76.43;33.53;;;;;;;-1.19;71.93;96145.38;5026331;28;20056;-74
2022/02/11 05:07:03;;;;;;;73.57;34.72;;;;;;;-1.19;72.43;96143.56;5025872;28;20025;-73
2022/02/11 05:09:30;;;;;;;85.57;37.90;;;;;;;-1.24;73.19;96140.34;5026018;28;20033;-74
2022/02/11 05:11:55;;;;;;;79.25;35.85;;;;;;;-1.29;73.30;96137.16;5025429;28;20042;-73
2022/02/11 05:14:20;;;;;;;89.43;37.08;;;;;;;-1.27;73.52;96137.88;5026186;28;20398;-73
2022/02/11 05:16:46;;;;;;;94.45;37.85;;;;;;;-1.25;73.23;96143.94;5025595;28;20028;-73
2022/02/11 05:19:11;;;;;;;83.72;36.88;;;;;;;-1.22;73.33;96143.75;5027287;28;20493;-74
2022/02/11 05:21:37;;;;;;;96.00;38.03;;;;;;;-1.21;73.27;96136.72;5025766;28;20531;-74
2022/02/11 05:24:02;;;;;;;82.82;36.22;;;;;;;-1.26;72.76;96147.50;5025467;28;20041;-74
2022/02/11 05:26:29;;;;;;;84.22;37.08;;;;;;;-1.25;72.43;96143.94;5026158;28;20031;-74
2022/02/11 05:28:55;;;;;;;86.47;35.25;;;;;;;-1.28;72.20;96138.84;5026215;28;20570;-74
2022/02/11 05:31:20;;;;;;;78.13;33.17;;;;;;;-1.26;72.67;96152.78;5026198;28;20026;-74
2022/02/11 05:33:47;;;;;;;63.33;32.72;;;;;;;-1.32;72.72;96148.69;5026515;28;20486;-73
2022/02/11 05:36:14;;;;;;;79.53;35.65;;;;;;;-1.30;72.32;96154.72;5026043;28;20404;-74
2022/02/11 05:38:40;;;;;;;82.57;34.97;;;;;;;-1.28;71.62;96150.22;5025411;28;20457;-75
2022/02/11 05:41:05;;;;;;;79.40;33.80;;;;;;;-1.31;71.37;96158.28;5025451;28;20492;-73
2022/02/11 05:43:31;;;;;;;80.85;37.35;;;;;;;-1.29;70.56;96163.47;5025756;28;20021;-74
2022/02/11 05:45:56;;;;;;;81.60;37.42;;;;;;;-1.38;70.25;96165.69;5025952;28;20033;-74
2022/02/11 05:48:21;;;;;;;83.13;36.97;;;;;;;-1.41;69.88;96167.63;5025722;28;20021;-74
2022/02/11 05:50:47;;;;;;;72.05;35.88;;;;;;;-1.46;70.11;96167.88;5026054;28;20026;-72
2022/02/11 05:53:12;;;;;;;80.40;35.42;;;;;;;-1.58;70.65;96172.00;5027126;28;20076;-75
2022/02/11 05:55:38;;;;;;;86.03;38.30;;;;;;;-1.53;70.51;96175.25;5026347;28;20475;-74
2022/02/11 05:58:03;;;;;;;85.15;37.10;;;;;;;-1.52;70.47;96176.09;5008426;28;20064;-74
2022/02/11 06:00:29;;;;;;;85.68;36.42;;;;;;;-1.52;70.27;96176.09;5026364;28;20063;-74
2022/02/11 06:02:54;;;;;;;94.47;39.97;;;;;;;-1.51;70.01;96175.16;5024530;28;20033;-73
2022/02/11 06:05:21;;;;;;;82.97;38.70;;;;;;;-1.44;69.91;96180.94;5025549;28;20036;-74
2022/02/11 06:07:47;;;;;;;87.45;38.65;;;;;;;-1.46;69.66;96182.81;5025779;28;20060;-74
2022/02/11 06:10:13;;;;;;;95.72;40.15;;;;;;;-1.63;70.22;96177.53;5025185;28;20022;-74
2022/02/11 06:12:38;;;;;;;90.28;40.05;;;;;;;-1.65;71.21;96183.81;5024522;28;20168;-73
2022/02/11 06:15:04;;;;;;;88.53;40.30;;;;;;;-1.58;71.56;96184.34;5024872;28;20083;-73
2022/02/11 06:17:30;;;;;;;98.90;39.28;;;;;;;-1.55;71.45;96185.03;5024484;28;20128;-73
2022/02/11 06:19:57;;;;;;;91.90;39.53;;;;;;;-1.42;71.02;96182.56;5023723;28;20030;-73
2022/02/11 06:22:22;;;;;;;87.32;38.47;;;;;;;-1.29;70.88;96179.25;5026542;28;20562;-75
2022/02/11 06:24:48;;;;;;;77.50;37.15;;;;;;;-1.10;69.61;96186.13;5024088;28;20026;-74
2022/02/11 06:27:15;;;;;;;82.82;37.42;;;;;;;-0.97;69.34;96181.88;5024816;28;20018;-74
2022/02/11 06:29:40;;;;;;;80.45;37.78;;;;;;;-0.69;68.91;96182.06;5025337;28;20049;-77
2022/02/11 06:32:06;;;;;;;79.47;38.95;;;;;;;-0.52;67.28;96183.72;5008340;28;20029;-75
2022/02/11 06:34:32;;;;;;;81.20;38.13;;;;;;;-0.33;67.02;96186.13;5025513;28;20033;-74
2022/02/11 06:36:57;;;;;;;84.00;37.60;;;;;;;-0.19;66.25;96189.72;5024312;28;20017;-73
2022/02/11 06:39:24;;;;;;;81.93;38.45;;;;;;;0.00;65.60;96192.13;5026020;28;20032;-73
2022/02/11 06:41:53;;;;;;;84.03;39.13;;;;;;;0.15;65.03;96184.19;5025247;28;20057;-73
2022/02/11 06:44:18;;;;;;;94.85;39.92;;;;;;;0.19;65.27;96185.72;5008272;28;20036;-73
2022/02/11 06:46:44;;;;;;;84.45;37.55;;;;;;;0.38;64.63;96181.94;5007373;28;20026;-74
2022/02/11 06:49:09;;;;;;;77.43;39.03;;;;;;;0.45;64.99;96183.25;5025703;28;20026;-73
2022/02/11 06:51:34;;;;;;;89.20;40.22;;;;;;;0.61;64.58;96189.25;5025281;28;20843;-73
2022/02/11 06:54:00;;;;;;;79.82;38.05;;;;;;;0.83;63.32;96190.56;5024385;28;20443;-72
2022/02/11 06:56:25;;;;;;;81.60;38.22;;;;;;;1.06;63.79;96180.31;5007698;28;20056;-74
2022/02/11 06:58:53;;;;;;;76.28;38.33;;;;;;;1.26;62.06;96185.25;5024098;28;20021;-73
2022/02/11 07:01:19;;;;;;;91.55;41.78;;;;;;;1.36;61.21;96175.75;5024192;28;20056;-74
2022/02/11 07:03:44;;;;;;;76.80;37.78;;;;;;;1.48;61.49;96182.84;5023597;28;20025;-75
2022/02/11 07:06:09;;;;;;;75.32;38.38;;;;;;;1.63;61.44;96179.31;5007855;28;20075;-74
2022/02/11 07:08:35;;;;;;;73.43;38.25;;;;;;;1.73;60.71;96175.94;5023571;28;20052;-74
2022/02/11 07:11:01;;;;;;;75.18;38.20;;;;;;;1.76;61.28;96168.75;5024290;28;20032;-77
2022/02/11 07:13:26;;;;;;;76.40;37.30;;;;;;;2.04;60.99;96173.00;5007104;28;20099;-73
2022/02/11 07:15:52;;;;;;;74.78;38.13;;;;;;;2.12;60.70;96174.25;5024165;28;20122;-73
2022/02/11 07:18:17;;;;;;;77.80;38.45;;;;;;;2.28;60.62;96169.59;5023702;28;20458;-73
2022/02/11 07:20:43;;;;;;;81.00;38.67;;;;;;;2.47;60.68;96174.47;5024588;28;20531;-73
2022/02/11 07:23:08;;;;;;;81.60;39.13;;;;;;;2.68;60.47;96173.88;5025272;28;20034;-73
2022/02/11 07:25:33;;;;;;;82.07;38.20;;;;;;;2.81;59.88;96170.34;5024513;28;20029;-74
2022/02/11 07:27:59;;;;;;;78.47;41.85;;;;;;;3.03;59.54;96167.00;5024161;28;20025;-75
2022/02/11 07:30:25;;;;;;;74.72;40.38;;;;;;;3.25;59.51;96167.22;5005800;28;20029;-74
2022/02/11 07:32:52;;;;;;;80.55;39.90;;;;;;;3.38;59.67;96160.06;5023913;28;20095;-74
2022/02/11 07:35:18;;;;;;;76.10;41.13;;;;;;;3.38;59.35;96159.22;5023397;28;20404;-76
2022/02/11 07:37:44;;;;;;;77.80;39.40;;;;;;;3.62;59.20;96164.50;5023423;28;20515;-73
2022/02/11 07:40:10;;;;;;;77.30;39.58;;;;;;;3.70;59.09;96162.09;5024001;28;20046;-73
2022/02/11 07:42:37;;;;;;;67.85;37.80;;;;;;;3.87;58.66;96170.56;5024222;28;20040;-74
2022/02/11 07:45:02;;;;;;;77.10;38.83;;;;;;;4.04;58.90;96169.31;5024325;28;20097;-74
2022/02/11 07:47:28;;;;;;;76.40;39.88;;;;;;;4.10;58.62;96164.47;5023015;28;20025;-73
2022/02/11 07:49:54;;;;;;;70.05;38.67;;;;;;;4.18;59.12;96167.38;5007585;28;20033;-74
2022/02/11 07:52:19;;;;;;;74.25;39.60;;;;;;;4.41;59.06;96160.28;5023244;28;20123;-74
2022/02/11 07:54:45;;;;;;;69.78;36.80;;;;;;;4.55;58.74;96164.50;5023853;28;20108;-74
2022/02/11 07:57:10;;;;;;;65.55;37.38;;;;;;;4.69;57.82;96155.44;5023457;28;20515;-73
2022/02/11 07:59:36;;;;;;;66.25;36.15;;;;;;;4.76;58.19;96163.75;5022748;28;20033;-75
2022/02/11 08:02:01;;;;;;;64.18;36.47;;;;;;;4.85;57.47;96161.34;5023786;28;20033;-73
2022/02/11 08:04:27;;;;;;;61.92;37.00;;;;;;;4.91;57.29;96160.84;5023839;28;20030;-74
2022/02/11 08:06:52;;;;;;;65.88;37.45;;;;;;;5.08;57.13;96154.16;5023728;28;20034;-73
2022/02/11 08:09:18;;;;;;;59.63;36.72;;;;;;;5.18;57.72;96151.59;5022935;28;20022;-74
2022/02/11 08:11:44;;;;;;;64.72;38.65;;;;;;;5.26;57.63;96150.94;5023893;28;20410;-76
2022/02/11 08:14:10;;;;;;;73.28;40.33;;;;;;;5.35;57.54;96147.56;5024403;28;20025;-74
2022/02/11 08:16:35;;;;;;;64.70;39.10;;;;;;;5.43;57.10;96149.59;5006303;28;20389;-76
2022/02/11 08:19:01;;;;;;;64.40;38.45;;;;;;;5.44;57.78;96152.13;5023649;28;20030;-74
2022/02/11 08:21:26;;;;;;;65.95;40.40;;;;;;;5.52;57.37;96155.94;5022131;28;20507;-74
2022/02/11 08:23:52;;;;;;;73.57;40.05;;;;;;;5.69;56.88;96150.06;5023704;28;20510;-74
2022/02/11 08:26:17;;;;;;;67.68;41.30;;;;;;;5.85;56.77;96147.94;5022791;28;20039;-73
2022/02/11 08:28:43;;;;;;;69.85;41.55;;;;;;;5.75;56.96;96143.38;5023231;28;20445;-73
2022/02/11 08:31:08;;;;;;;69.82;43.42;;;;;;;5.66;57.55;96137.00;5022913;28;20018;-74
2022/02/11 08:33:34;;;;;;;74.85;43.00;;;;;;;5.81;57.43;96137.53;5023122;28;20034;-77
2022/02/11 08:35:59;;;;;;;79.95;44.65;;;;;;;5.92;57.32;96133.09;5024389;28;20030;-73
2022/02/11 08:38:25;;;;;;;71.60;43.03;;;;;;;5.91;57.91;96134.09;5024058;28;20030;-74
2022/02/11 08:40:51;;;;;;;74.13;43.90;;;;;;;5.98;57.67;96127.25;5023593;28;20508;-73
2022/02/11 08:43:16;;;;;;;82.95;46.00;;;;;;;5.98;57.22;96127.25;5025408;28;20563;-73
2022/02/11 08:45:42;;;;;;;82.55;45.17;;;;;;;6.00;56.89;96125.31;5026616;28;20467;-74
2022/02/11 08:48:08;;;;;;;74.95;45.28;;;;;;;6.16;57.94;96127.53;5027577;28;20076;-76
2022/02/11 08:50:35;;;;;;;75.63;46.50;;;;;;;6.10;58.43;96122.75;5009838;28;20389;-75
2022/02/11 08:53:01;;;;;;;78.45;45.67;;;;;;;6.15;57.93;96123.19;5026249;28;20026;-74
2022/02/11 08:55:26;;;;;;;71.53;43.95;;;;;;;6.29;56.96;96118.47;5026512;28;20450;-73
2022/02/11 08:57:53;;;;;;;72.93;44.42;;;;;;;6.43;56.90;96123.44;5027555;28;20052;-78
2022/02/11 09:00:19;;;;;;;77.35;44.58;;;;;;;6.56;57.26;96114.41;5025864;28;20025;-74
2022/02/11 09:02:44;;;;;;;85.00;46.30;;;;;;;6.81;56.72;96104.22;5026479;28;20025;-76
2022/02/11 09:05:10;;;;;;;72.63;42.60;;;;;;;7.01;56.12;96106.94;5025866;28;20029;-74
2022/02/11 09:07:35;;;;;;;78.28;44.58;;;;;;;6.93;56.20;96102.28;5026387;28;20088;-74
2022/02/11 09:10:03;;;;;;;70.50;43.28;;;;;;;7.15;56.22;96103.84;5025775;28;20026;-75
2022/02/11 09:12:28;;;;;;;74.15;41.88;;;;;;;7.21;56.17;96098.91;5026557;28;20025;-74
2022/02/11 09:14:54;;;;;;;76.90;44.45;;;;;;;7.23;55.63;96100.50;5025875;28;20048;-74
2022/02/11 09:17:19;;;;;;;67.75;40.40;;;;;;;7.33;55.39;96099.66;5025651;28;20037;-76
2022/02/11 09:19:47;;;;;;;57.35;34.10;;;;;;;7.42;55.24;96090.78;5026075;28;20030;-73
2022/02/11 09:22:12;;;;;;;45.15;28.23;;;;;;;7.52;54.67;96088.97;5025343;28;20033;-75
2022/02/11 09:24:37;;;;;;;54.65;32.10;;;;;;;7.62;54.45;96090.78;5026004;28;20048;-77
2022/02/11 09:27:03;;;;;;;56.45;35.42;;;;;;;7.73;54.67;96079.94;5026947;28;20028;-77
2022/02/11 09:29:29;;;;;;;66.82;36.08;;;;;;;7.86;54.91;96086.81;5027441;28;20029;-73
2022/02/11 09:31:54;;;;;;;60.88;35.47;;;;;;;7.95;54.57;96085.94;5026663;28;20409;-74
2022/02/11 09:34:20;;;;;;;63.72;34.75;;;;;;;8.04;54.80;96084.25;5027640;28;20033;-74
2022/02/11 09:36:45;;;;;;;53.92;32.45;;;;;;;8.13;54.19;96079.84;5025445;28;20041;-74
2022/02/11 09:39:11;;;;;;;42.95;29.38;;;;;;;8.22;53.72;96081.63;5026560;28;20026;-74
2022/02/11 09:41:37;;;;;;;48.80;29.90;;;;;;;8.28;53.37;96077.56;5027462;28;20302;-74
2022/02/11 09:44:04;;;;;;;46.25;28.60;;;;;;;8.37;53.46;96065.13;5024801;28;20030;-74
2022/02/11 09:46:30;;;;;;;51.50;30.70;;;;;;;8.42;53.05;96068.19;5025940;28;20316;-73
2022/02/11 09:48:56;;;;;;;47.22;28.73;;;;;;;8.52;52.48;96069.00;5025026;28;20078;-74
2022/02/11 09:51:21;;;;;;;51.08;29.38;;;;;;;8.58;52.19;96072.09;5025858;28;20100;-75
2022/02/11 09:53:46;;;;;;;46.70;27.33;;;;;;;8.64;52.82;96066.16;5024461;28;20025;-73
2022/02/11 09:56:12;;;;;;;48.40;27.75;;;;;;;8.66;52.22;96058.81;5008619;28;20025;-74
2022/02/11 09:58:38;;;;;;;44.15;27.55;;;;;;;8.78;52.35;96054.97;5025785;28;20461;-74
2022/02/11 10:01:03;;;;;;;44.55;27.05;;;;;;;8.88;52.13;96054.88;5024335;28;20025;-75
2022/02/11 10:03:32;;;;;;;56.20;32.28;;;;;;;8.90;50.94;96049.38;5027344;28;20027;-76
2022/02/11 10:06:05;;;;;;;54.25;32.88;;;;;;;8.95;51.18;96051.59;5024452;28;20484;-74
2022/02/11 10:08:32;;;;;;;;;;;;;;;8.97;50.76;96039.75;5009511;28;20563;-74
2022/02/11 10:10:58;;;;;;;54.25;32.70;;;;;;;8.92;50.88;96033.16;5024709;28;19913;-74
2022/02/11 10:13:25;;;;;;;56.15;31.73;;;;;;;8.96;50.51;96031.91;5024996;28;20063;-74
2022/02/11 10:15:59;;;;;;;47.33;30.95;;;;;;;8.99;51.06;96027.09;5026329;28;20021;-74
2022/02/11 10:18:30;;;;;;;51.70;30.17;;;;;;;9.07;50.97;96023.66;5024064;28;20067;-76
2022/02/11 10:21:00;;;;;;;46.13;30.02;;;;;;;9.19;50.84;96016.22;5025005;28;20041;-73
2022/02/11 10:23:31;;;;;;;43.10;29.00;;;;;;;9.31;51.12;96018.66;5024343;28;20412;-74
2022/02/11 10:26:13;;;;;;;39.38;26.60;;;;;;;9.40;51.05;96015.88;5024903;28;20026;-75
2022/02/11 10:28:43;;;;;;;39.63;27.70;;;;;;;9.47;50.49;96005.41;5026230;28;20029;-75
2022/02/11 10:31:19;;;;;;;41.78;27.77;;;;;;;9.54;51.08;95996.75;5023738;28;20088;-73
2022/02/11 10:34:00;;;;;;;41.00;26.83;;;;;;;9.63;51.29;95995.78;5026537;28;20095;-74
2022/02/11 10:36:30;;;;;;;42.40;26.85;;;;;;;9.64;50.56;95997.50;5025589;28;20615;-75
2022/02/11 10:39:10;;;;;;;43.05;26.20;;;;;;;9.71;50.38;95979.78;5024669;28;20420;-74
2022/02/11 10:41:45;;;;;;;36.90;24.75;;;;;;;9.72;49.82;95977.94;5025941;28;20036;-74
2022/02/11 10:44:15;;;;;;;42.22;27.20;;;;;;;9.72;49.61;95967.25;5024268;28;20033;-74
2022/02/11 10:46:45;;;;;;;38.05;27.05;;;;;;;9.74;49.39;95968.75;5024794;28;20034;-75
2022/02/11 10:49:11;;;;;;;43.20;27.67;;;;;;;9.70;49.99;95962.03;5025118;28;20071;-73
2022/02/11 10:51:44;;;;;;;42.72;28.20;;;;;;;9.74;49.96;95960.72;5024643;28;20516;-73
2022/02/11 10:54:23;;;;;;;49.28;30.05;;;;;;;9.84;49.85;95957.06;5007927;28;20033;-74
2022/02/11 10:56:52;;;;;;;39.75;26.30;;;;;;;9.93;49.42;95952.63;5025300;28;20026;-73
2022/02/11 10:59:28;;;;;;;41.60;25.92;;;;;;;10.04;49.49;95946.97;5024407;28;20502;-74
2022/02/11 11:01:58;;;;;;;45.60;27.38;;;;;;;10.24;49.40;95944.84;5023737;28;20030;-75
2022/02/11 11:04:24;;;;;;;39.22;26.52;;;;;;;10.39;49.43;95936.19;5024007;28;20025;-76
2022/02/11 11:06:53;;;;;;;46.40;30.33;;;;;;;10.51;49.75;95940.28;5007439;28;20112;-75
2022/02/11 11:09:19;;;;;;;37.78;23.52;;;;;;;10.55;48.06;95934.56;5023949;28;20026;-74
2022/02/11 11:11:44;;;;;;;32.97;22.70;;;;;;;10.56;47.52;95928.22;5024119;28;20385;-75
2022/02/11 11:14:17;;;;;;;39.75;22.60;;;;;;;10.70;47.74;95932.94;5023386;28;20052;-73
2022/02/11 11:16:44;;;;;;;32.88;22.75;;;;;;;10.75;48.36;95927.91;5025567;28;20045;-72
2022/02/11 11:19:09;;;;;;;37.53;22.27;;;;;;;10.91;47.13;95920.91;5023171;28;20034;-74
2022/02/11 11:21:39;;;;;;;34.72;21.02;;;;;;;11.04;47.61;95916.84;5007511;28;20057;-75
2022/02/11 11:24:05;;;;;;;31.00;21.92;;;;;;;11.15;47.57;95913.00;5023699;28;20041;-73
2022/02/11 11:26:44;;;;;;;30.67;20.58;;;;;;;11.24;47.85;95906.59;5007575;28;20061;-75
2022/02/11 11:29:18;;;;;;;29.20;19.75;;;;;;;11.30;47.51;95894.34;5007264;28;20064;-75
2022/02/11 11:31:57;;;;;;;31.33;19.75;;;;;;;11.41;46.03;95899.38;5023516;28;20447;-74
2022/02/11 11:34:24;;;;;;;29.13;17.95;;;;;;;11.54;45.79;95889.94;5023908;28;20035;-74
2022/02/11 11:36:51;;;;;;;26.80;17.55;;;;;;;11.70;45.68;95883.69;5023414;28;20037;-74
2022/02/11 11:39:18;;;;;;;29.50;16.98;;;;;;;11.79;45.50;95879.97;5023758;28;20136;-75
2022/02/11 11:41:44;;;;;;;21.80;14.32;;;;;;;11.87;43.15;95862.97;5024998;28;20044;-74
2022/02/11 11:44:18;;;;;;;26.30;15.27;;;;;;;12.04;43.83;95869.09;5023442;28;20036;-74
2022/02/11 11:46:48;;;;;;;20.17;14.25;;;;;;;12.21;43.97;95861.81;5024343;28;20385;-74
2022/02/11 11:49:15;;;;;;;22.73;13.68;;;;;;;12.38;43.88;95852.81;5006606;28;20407;-74
2022/02/11 11:51:40;;;;;;;24.20;14.25;;;;;;;12.50;43.78;95854.06;5007592;28;20030;-74
2022/02/11 11:56:55;;;;;;;28.10;15.93;;;;;;;12.75;41.62;95837.75;5025235;28;20065;-74
2022/02/11 11:59:26;;;;;;;28.02;16.42;;;;;;;12.82;41.21;95835.16;5024757;28;20022;-75
2022/02/11 12:01:52;;;;;;;25.20;15.18;;;;;;;12.91;42.46;95830.56;5006998;28;20021;-77
2022/02/11 12:04:23;;;;;;;25.10;13.38;;;;;;;12.94;40.90;95820.25;5023980;28;20026;-76
2022/02/11 12:07:08;;;;;;;12.73;7.45;;;;;;;13.04;38.80;95819.97;5024499;28;20030;-74
2022/02/11 12:09:34;;;;;;;11.93;7.65;;;;;;;13.07;37.67;95818.78;5024465;28;20037;-74
2022/02/11 12:12:07;;;;;;;10.35;6.70;;;;;;;13.18;38.25;95817.50;5023244;28;20075;-74
2022/02/11 12:14:33;;;;;;;;;;;;;;;13.35;39.45;95810.06;5006723;28;20451;-75
2022/02/11 12:16:59;;;;;;;11.50;7.22;;;;;;;13.46;39.31;95812.31;5025637;28;20508;-76
2022/02/11 12:19:25;;;;;;;15.43;8.10;;;;;;;13.59;38.61;95800.91;5010007;28;20106;-76
2022/02/11 12:21:51;;;;;;;14.73;7.82;;;;;;;13.71;38.32;95803.97;5027294;28;20050;-73
2022/02/11 12:29:49;;;;;;;9.88;6.38;;;;;;;14.13;37.43;95792.66;5027285;28;20430;-75
2022/02/11 12:32:16;;;;;;;11.05;7.50;;;;;;;14.21;37.19;95786.28;5009917;28;20029;-74
2022/02/11 12:34:57;;;;;;;9.85;7.00;;;;;;;14.37;36.73;95789.75;5026991;28;20025;-78
2022/02/11 12:37:28;;;;;;;12.05;5.97;;;;;;;14.50;35.63;95794.47;5026402;28;20503;-73
2022/02/11 12:40:11;;;;;;;10.57;7.82;;;;;;;14.61;36.38;95785.84;5027302;28;20048;-77
2022/02/11 12:42:41;;;;;;;16.63;8.95;;;;;;;14.69;37.11;95777.63;5028044;28;20056;-75
2022/02/11 12:45:07;;;;;;;15.57;7.68;;;;;;;14.71;35.81;95775.56;5027330;28;20068;-75
2022/02/11 12:47:33;;;;;;;13.38;7.50;;;;;;;14.76;37.03;95772.28;5010354;28;20419;-75
2022/02/11 12:50:00;;;;;;;12.55;8.32;;;;;;;14.90;38.05;95775.09;5027270;28;20480;-76
2022/02/11 12:52:28;;;;;;;16.00;7.47;;;;;;;15.00;36.55;95774.75;5026963;28;20032;-74
2022/02/11 12:55:21;;;;;;;12.60;7.18;;;;;;;15.09;36.26;95760.06;5025930;28;20026;-76
2022/02/11 12:57:58;;;;;;;7.75;4.85;;;;;;;15.30;34.91;95763.72;5024903;28;20069;-75
2022/02/11 13:00:25;;;;;;;7.82;5.20;;;;;;;15.32;34.18;95758.97;5010497;28;20029;-74
2022/02/11 13:02:54;;;;;;;7.78;5.15;;;;;;;15.48;34.40;95756.97;5025513;28;20451;-75
2022/02/11 13:05:20;;;;;;;10.98;5.15;;;;;;;15.58;34.34;95752.03;5026834;28;20557;-76
2022/02/11 13:07:50;;;;;;;7.60;5.45;;;;;;;15.74;34.07;95758.97;5025417;28;20510;-75
2022/02/11 13:10:28;;;;;;;9.80;5.57;;;;;;;15.85;33.21;95754.84;5026397;28;20025;-74
2022/02/11 13:13:07;;;;;;;9.45;5.40;;;;;;;15.96;33.11;95748.00;5026074;28;20052;-75
2022/02/11 13:15:35;;;;;;;11.13;5.63;;;;;;;16.06;33.37;95742.25;5025368;28;20045;-73
2022/02/11 13:18:09;;;;;;;10.93;5.35;;;;;;;16.21;32.70;95749.34;5009743;28;20053;-75
2022/02/11 13:20:36;;;;;;;12.25;5.53;;;;;;;16.27;32.97;95748.53;5027041;28;20136;-76
2022/02/11 13:23:02;;;;;;;7.30;4.63;;;;;;;16.34;31.42;95749.41;5027299;28;20033;-74
2022/02/11 13:25:29;;;;;;;7.47;4.28;;;;;;;16.40;31.23;95739.59;5025621;28;20503;-75
2022/02/11 13:27:56;;;;;;;7.85;4.43;;;;;;;16.54;32.23;95744.00;5025049;28;20496;-74
2022/02/11 13:30:29;;;;;;;6.82;3.97;;;;;;;16.68;31.30;95736.69;5026757;28;20036;-75
2022/02/11 13:32:59;;;;;;;9.43;4.65;;;;;;;16.84;32.07;95747.31;5024935;28;20126;-74
2022/02/11 13:35:25;;;;;;;7.47;4.18;;;;;;;16.98;31.51;95742.72;5026123;28;20500;-73
2022/02/11 13:37:58;;;;;;;7.63;4.50;;;;;;;17.05;31.38;95740.84;5024965;28;20068;-74
2022/02/11 13:40:27;;;;;;;7.20;3.80;;;;;;;17.17;30.31;95741.06;5026099;28;20064;-74
2022/02/11 13:43:03;;;;;;;5.97;3.75;;;;;;;17.22;29.73;95738.56;5025258;28;20069;-78
2022/02/11 13:45:29;;;;;;;6.38;4.03;;;;;;;17.31;29.31;95739.19;5025249;28;20381;-75
2022/02/11 13:48:08;;;;;;;5.15;3.60;;;;;;;17.39;29.38;95736.25;5025711;28;20037;-76
2022/02/11 13:51:05;;;;;;;5.47;3.47;;;;;;;17.44;28.12;95741.03;5026297;28;20539;-75
2022/02/11 13:53:32;;;;;;;6.00;3.22;;;;;;;17.52;28.39;95731.81;5025594;28;20477;-75
2022/02/11 13:55:57;;;;;;;4.30;3.17;;;;;;;17.61;29.34;95735.09;5024900;28;20384;-76
2022/02/11 13:58:23;;;;;;;4.68;3.03;;;;;;;17.72;28.64;95730.88;5024913;28;20085;-75
2022/02/11 14:00:48;;;;;;;6.25;3.03;;;;;;;17.82;28.27;95736.69;5025308;28;20034;-75
2022/02/11 14:03:28;;;;;;;5.15;3.10;;;;;;;17.91;27.87;95732.69;5024551;28;20033;-74
2022/02/11 14:06:01;;;;;;;4.78;2.70;;;;;;;17.98;27.72;95729.09;5025322;28;20024;-74
2022/02/11 14:08:42;;;;;;;4.70;3.00;;;;;;;18.02;27.26;95725.72;5024893;28;20025;-74
2022/02/11 14:11:15;;;;;;;6.90;3.55;;;;;;;17.97;26.93;95724.72;5024673;28;20025;-74
2022/02/11 14:13:42;;;;;;;4.47;2.90;;;;;;;18.01;27.76;95724.09;5009009;28;20352;-74
2022/02/11 14:16:07;;;;;;;6.32;2.90;;;;;;;18.13;27.73;95723.44;5024000;28;20026;-74
2022/02/11 14:18:33;;;;;;;5.47;2.92;;;;;;;18.14;26.85;95723.22;5025112;28;20022;-74
2022/02/11 14:20:58;;;;;;;5.22;3.05;;;;;;;18.12;26.27;95724.50;5024131;28;20053;-75
2022/02/11 14:23:26;;;;;;;5.97;2.78;;;;;;;18.09;26.78;95725.72;5008552;28;20033;-76
2022/02/11 14:25:51;;;;;;;7.60;3.30;;;;;;;18.13;27.57;95723.44;5025736;28;20423;-74
2022/02/11 14:28:17;;;;;;;5.03;3.78;;;;;;;18.14;26.42;95728.63;5025804;28;20021;-76
2022/02/11 14:30:43;;;;;;;4.93;2.97;;;;;;;18.15;26.79;95730.28;5026158;28;20488;-75
2022/02/11 14:33:09;;;;;;;5.22;2.83;;;;;;;18.10;26.71;95726.56;5025214;28;20112;-76
2022/02/11 14:35:35;;;;;;;8.18;2.80;;;;;;;17.93;26.13;95724.31;5026306;28;20022;-75
2022/02/11 14:38:00;;;;;;;4.93;2.65;;;;;;;17.89;26.63;95728.53;5025135;28;20033;-75
2022/02/11 14:40:26;;;;;;;6.10;3.90;;;;;;;17.86;26.43;95723.53;5008011;28;20031;-75
2022/02/11 14:42:51;;;;;;;6.43;3.63;;;;;;;17.76;27.56;95715.88;5007550;28;20476;-74
2022/02/11 14:45:17;;;;;;;6.45;3.30;;;;;;;17.71;27.72;95713.81;5024294;28;20029;-75
2022/02/11 14:47:42;;;;;;;6.45;3.38;;;;;;;17.68;27.07;95719.66;5007782;28;20021;-75
2022/02/11 14:50:08;;;;;;;5.35;3.60;;;;;;;17.55;26.79;95720.53;5025257;28;20032;-74
2022/02/11 14:52:33;;;;;;;13.50;4.72;;;;;;;17.38;27.24;95721.00;5024685;28;20060;-74
2022/02/11 14:54:59;;;;;;;6.05;2.78;;;;;;;17.25;27.40;95721.06;5025189;28;20052;-74
2022/02/11 14:57:24;;;;;;;7.70;3.55;;;;;;;17.06;27.47;95718.13;5007665;28;20025;-74
2022/02/11 14:59:50;;;;;;;8.07;3.72;;;;;;;16.88;27.66;95714.19;5024986;28;20052;-75
2022/02/11 15:02:16;;;;;;;6.35;3.83;;;;;;;16.62;28.35;95713.16;5007724;28;20533;-75
2022/02/11 15:04:41;;;;;;;11.07;4.50;;;;;;;16.42;29.03;95713.16;5023786;28;20030;-74
2022/02/11 15:07:07;;;;;;;8.20;3.90;;;;;;;16.23;28.95;95709.41;5023987;28;20179;-73
2022/02/11 15:09:33;;;;;;;8.20;4.63;;;;;;;15.99;29.50;95715.16;5024087;28;20032;-73
2022/02/11 15:11:58;;;;;;;13.57;6.07;;;;;;;15.85;29.82;95711.56;5023379;28;20031;-76
2022/02/11 15:14:26;;;;;;;18.92;9.35;;;;;;;15.81;31.20;95719.25;5024016;28;20501;-76
2022/02/11 15:16:52;;;;;;;20.23;10.13;;;;;;;15.61;31.52;95711.06;5024458;28;20017;-74
2022/02/11 15:19:17;;;;;;;21.42;10.80;;;;;;;15.49;32.02;95718.09;5023867;28;20310;-77
2022/02/11 15:21:43;;;;;;;22.27;11.30;;;;;;;15.25;32.15;95715.69;5024746;28;20504;-77